createdAt,value
2022-11-15T00:00:51.953Z,32
2022-11-15T00:06:08.404Z,32
2022-11-15T00:11:24.878Z,34
2022-11-15T00:16:41.982Z,35
2022-11-15T00:21:58.449Z,33
2022-11-15T00:27:14.940Z,35
2022-11-15T00:32:31.401Z,36
2022-11-15T00:37:47.898Z,36
2022-11-15T00:43:04.397Z,30
2022-11-15T00:48:20.850Z,31
2022-11-15T00:53:37.315Z,28
2022-11-15T00:58:53.758Z,30
2022-11-15T01:04:10.237Z,25
2022-11-15T01:09:26.680Z,26
2022-11-15T01:14:43.117Z,21
2022-11-15T01:19:59.632Z,23
2022-11-15T01:25:16.085Z,23
2022-11-15T01:30:32.567Z,22
2022-11-15T01:35:49.038Z,24
2022-11-15T01:41:06.346Z,24
2022-11-15T01:46:22.821Z,25
2022-11-15T01:51:38.988Z,24
2022-11-15T01:56:55.488Z,24
2022-11-15T02:02:11.916Z,24
2022-11-15T02:07:28.515Z,25
2022-11-15T02:12:44.917Z,27
2022-11-15T02:18:07.537Z,23
2022-11-15T02:23:23.992Z,26
2022-11-15T02:28:40.197Z,26
2022-11-15T02:33:57.261Z,25
2022-11-15T02:39:13.710Z,23
2022-11-15T02:44:30.170Z,17
2022-11-15T02:49:46.588Z,21
2022-11-15T02:55:03.065Z,19
2022-11-15T03:00:19.502Z,16
2022-11-15T03:05:35.972Z,19
2022-11-15T03:10:52.437Z,21
2022-11-15T03:16:08.864Z,23
2022-11-15T03:21:25.380Z,24
2022-11-15T03:26:41.817Z,20
2022-11-15T03:31:58.294Z,18
2022-11-15T03:37:14.705Z,20
2022-11-15T03:42:31.170Z,18
2022-11-15T03:47:47.603Z,18
2022-11-15T03:53:04.103Z,17
2022-11-15T03:58:20.564Z,16
2022-11-15T04:03:37.024Z,18
2022-11-15T04:08:53.496Z,18
2022-11-15T04:14:09.945Z,16
2022-11-15T04:19:26.389Z,19
2022-11-15T04:24:42.563Z,21
2022-11-15T04:29:59.503Z,18
2022-11-15T04:35:15.961Z,20
2022-11-15T04:40:32.414Z,19
2022-11-15T04:45:48.809Z,17
2022-11-15T04:51:05.249Z,17
2022-11-15T04:56:21.709Z,17
2022-11-15T05:01:43.608Z,18
2022-11-15T05:06:54.647Z,20
2022-11-15T05:12:11.052Z,16
2022-11-15T05:17:27.559Z,16
2022-11-15T05:22:44.053Z,15
2022-11-15T05:28:02.394Z,18
2022-11-15T05:33:18.862Z,17
2022-11-15T05:38:35.360Z,17
2022-11-15T05:43:51.871Z,18
2022-11-15T05:49:08.341Z,20
2022-11-15T05:54:24.839Z,18
2022-11-15T05:59:41.308Z,20
2022-11-15T06:04:57.744Z,19
2022-11-15T06:10:14.222Z,19
2022-11-15T06:15:30.734Z,19
2022-11-15T06:20:47.174Z,18
2022-11-15T06:26:03.997Z,20
2022-11-15T06:31:20.444Z,23
2022-11-15T06:36:36.924Z,22
2022-11-15T06:41:53.434Z,22
2022-11-15T06:47:09.944Z,24
2022-11-15T06:52:26.404Z,24
2022-11-15T06:57:42.913Z,27
2022-11-15T07:02:59.407Z,31
2022-11-15T07:08:16.483Z,29
2022-11-15T07:13:34.085Z,27
2022-11-15T07:18:50.114Z,27
2022-11-15T07:24:06.640Z,29
2022-11-15T07:29:23.901Z,26
2022-11-15T07:34:40.406Z,23
2022-11-15T07:39:57.487Z,25
2022-11-15T07:45:13.940Z,23
2022-11-15T07:50:30.416Z,24
2022-11-15T07:55:46.858Z,22
2022-11-15T08:01:04.193Z,24
2022-11-15T08:06:21.188Z,24
2022-11-15T08:11:37.662Z,24
2022-11-15T08:16:54.079Z,24
2022-11-15T08:22:10.552Z,22
2022-11-15T08:27:27.028Z,22
2022-11-15T08:32:43.452Z,19
2022-11-15T08:37:59.940Z,18
2022-11-15T08:43:16.357Z,18
2022-11-15T08:48:33.202Z,16
2022-11-15T08:53:49.302Z,17
2022-11-15T08:59:05.718Z,16
2022-11-15T09:04:22.956Z,14
2022-11-15T09:09:39.434Z,14
2022-11-15T09:14:55.929Z,15
2022-11-15T09:20:12.359Z,15
2022-11-15T09:25:28.801Z,15
2022-11-15T09:30:45.242Z,15
2022-11-15T09:36:01.800Z,13
2022-11-15T09:41:18.256Z,15
2022-11-15T09:46:34.661Z,18
2022-11-15T09:51:51.157Z,16
2022-11-15T09:57:15.712Z,12
2022-11-15T10:02:25.622Z,13
2022-11-15T10:07:42.024Z,13
2022-11-15T10:12:58.497Z,12
2022-11-15T10:18:14.953Z,11
2022-11-15T10:23:31.395Z,11
2022-11-15T10:28:47.820Z,12
2022-11-15T10:34:04.199Z,15
2022-11-15T10:40:25.493Z,14
2022-11-15T10:44:37.108Z,14
2022-11-15T10:49:55.160Z,15
2022-11-15T10:55:11.620Z,15
2022-11-15T11:00:28.041Z,16
2022-11-15T11:05:44.510Z,15
2022-11-15T11:11:03.833Z,14
2022-11-15T11:16:19.638Z,15
2022-11-15T11:21:39.918Z,14
2022-11-15T11:26:57.018Z,12
2022-11-15T11:32:08.942Z,13
2022-11-15T11:37:25.342Z,13
2022-11-15T11:42:41.785Z,12
2022-11-15T11:47:58.215Z,12
2022-11-15T11:53:14.648Z,12
2022-11-15T11:58:31.492Z,11
2022-11-15T12:03:47.463Z,10
2022-11-15T12:09:03.867Z,9
2022-11-15T12:14:20.305Z,8
2022-11-15T12:19:36.696Z,9
2022-11-15T12:24:53.149Z,9
2022-11-15T12:30:09.572Z,9
2022-11-15T12:35:26.000Z,10
2022-11-15T12:40:42.451Z,9
2022-11-15T12:45:58.826Z,12
2022-11-15T12:51:15.270Z,11
2022-11-15T12:56:31.697Z,11
2022-11-15T13:01:48.169Z,9
2022-11-15T13:07:04.626Z,10
2022-11-15T13:12:20.999Z,10
2022-11-15T13:17:37.457Z,10
2022-11-15T13:22:53.892Z,9
2022-11-15T13:28:10.341Z,10
2022-11-15T13:33:29.378Z,12
2022-11-15T13:38:43.197Z,10
2022-11-15T13:43:59.638Z,10
2022-11-15T13:49:16.110Z,12
2022-11-15T13:54:32.558Z,14
2022-11-15T13:59:48.986Z,15
2022-11-15T14:05:05.472Z,11
2022-11-15T14:10:22.959Z,14
2022-11-15T14:15:39.477Z,16
2022-11-15T14:20:55.886Z,15
2022-11-15T14:26:12.378Z,17
2022-11-15T14:31:28.783Z,19
2022-11-15T14:36:45.240Z,19
2022-11-15T14:42:01.871Z,19
2022-11-15T14:47:18.314Z,23
2022-11-15T14:52:34.734Z,21
2022-11-15T14:57:51.172Z,20
2022-11-15T15:03:07.653Z,23
2022-11-15T15:08:24.172Z,21
2022-11-15T15:13:41.151Z,23
2022-11-15T15:18:58.227Z,26
2022-11-15T15:24:14.705Z,27
2022-11-15T15:29:31.397Z,31
2022-11-15T15:34:47.855Z,32
2022-11-15T15:40:04.345Z,27
2022-11-15T15:45:20.771Z,31
2022-11-15T15:50:37.245Z,31
2022-11-15T15:55:53.466Z,30
2022-11-15T16:01:10.746Z,31
2022-11-15T16:06:27.121Z,28
2022-11-15T16:11:43.560Z,32
2022-11-15T16:17:00.030Z,34
2022-11-15T16:22:16.533Z,33
2022-11-15T16:27:33.002Z,35
2022-11-15T16:32:49.239Z,41
2022-11-15T16:38:05.727Z,48
2022-11-15T16:43:22.183Z,52
2022-11-15T16:48:38.390Z,50
2022-11-15T16:53:54.985Z,54
2022-11-15T16:59:11.860Z,55
2022-11-15T17:04:28.312Z,55
2022-11-15T17:09:45.225Z,58
2022-11-15T17:15:01.799Z,55
2022-11-15T17:20:18.637Z,54
2022-11-15T17:25:35.038Z,56
2022-11-15T17:30:51.883Z,59
2022-11-15T17:36:08.989Z,58
2022-11-15T17:41:26.084Z,59
2022-11-15T17:46:42.596Z,60
2022-11-15T17:51:58.909Z,60
2022-11-15T17:57:15.290Z,58
2022-11-15T18:02:31.877Z,59
2022-11-15T18:07:48.409Z,58
2022-11-15T18:13:05.493Z,60
2022-11-15T18:18:22.659Z,61
2022-11-15T18:23:39.792Z,58
2022-11-15T18:28:56.658Z,55
2022-11-15T18:34:12.852Z,52
2022-11-15T18:39:29.376Z,53
2022-11-15T18:44:45.888Z,48
2022-11-15T18:50:02.434Z,47
2022-11-15T18:55:18.618Z,45
2022-11-15T19:00:35.792Z,50
2022-11-15T19:05:51.990Z,49
2022-11-15T19:11:08.276Z,52
2022-11-15T19:16:24.780Z,48
2022-11-15T19:21:41.306Z,52
2022-11-15T19:26:57.989Z,52
2022-11-15T19:32:14.664Z,56
2022-11-15T19:37:30.914Z,58
2022-11-15T19:42:47.409Z,52
2022-11-15T19:48:04.704Z,55
2022-11-15T19:53:21.179Z,54
2022-11-15T19:58:37.435Z,57
2022-11-15T20:03:53.868Z,53
2022-11-15T20:09:10.332Z,48
2022-11-15T20:14:26.568Z,47
2022-11-15T20:19:43.125Z,50
2022-11-15T20:25:00.186Z,52
2022-11-15T20:30:17.796Z,56
2022-11-15T20:35:35.039Z,57
2022-11-15T20:40:57.449Z,56
2022-11-15T20:46:09.322Z,56
2022-11-15T20:51:25.546Z,60
2022-11-15T20:56:42.055Z,56
2022-11-15T21:01:59.882Z,58
2022-11-15T21:12:32.312Z,55
2022-11-15T21:17:48.751Z,58
2022-11-15T21:23:05.295Z,56
2022-11-15T21:28:21.885Z,57
2022-11-15T21:33:38.934Z,57
2022-11-15T21:38:55.443Z,57
2022-11-15T21:44:11.972Z,58
2022-11-15T21:49:28.914Z,62
2022-11-15T21:54:46.090Z,62
2022-11-15T22:00:02.946Z,62
2022-11-15T22:05:19.524Z,60
2022-11-15T22:10:36.520Z,59
2022-11-15T22:15:53.601Z,58
2022-11-15T22:21:10.429Z,54
2022-11-15T22:26:26.658Z,55
2022-11-15T22:31:43.669Z,55
2022-11-15T22:37:19.615Z,52
2022-11-15T22:42:19.429Z,52
2022-11-15T22:47:33.969Z,54
2022-11-15T22:52:50.197Z,51
2022-11-15T22:58:07.265Z,54
2022-11-15T23:03:23.836Z,53
2022-11-15T23:08:41.406Z,54
2022-11-15T23:13:57.418Z,51
2022-11-15T23:19:13.678Z,51
2022-11-15T23:24:30.159Z,48
2022-11-15T23:29:46.726Z,49
2022-11-15T23:35:03.248Z,51
2022-11-15T23:40:19.482Z,49
2022-11-15T23:45:35.724Z,49
2022-11-15T23:50:52.602Z,48
2022-11-15T23:56:09.892Z,46
